Terminal Aerodrome Forecast
Issued by NWS

Home | Current Version | Previous Version | Text Only | Print | Product List | Glossary On
Versions: 1 2 3 4 5 6 7 8 9 10 11 12 13 14 15 16 17 18 19
683
FTUS43 KUNR 221720
TAFGCC
TAF
KGCC 221720Z 2218/2318 15018G28KT P6SM BKN050
     FM230300 14011KT P6SM OVC020
     FM230800 11007KT 6SM -SHRA BR OVC008
     FM231500 13010KT P6SM BKN015=

USA.gov is the U.S. government's official web portal to all federal, state and local government web resources and services.